sensor_id;sensor_type;location;lat;lon;timestamp;temperature;humidity
44731;DHT22;30458;47.448;19.032;2022-11-15T00:09:30;9.00;99.90
44731;DHT22;30458;47.448;19.032;2022-11-15T00:19:49;8.90;99.90
44731;DHT22;30458;47.448;19.032;2022-11-15T00:30:09;8.90;99.90
44731;DHT22;30458;47.448;19.032;2022-11-15T00:40:28;8.90;99.90
44731;DHT22;30458;47.448;19.032;2022-11-15T00:50:48;8.90;99.90
44731;DHT22;30458;47.448;19.032;2022-11-15T01:01:13;9.00;99.90
44731;DHT22;30458;47.448;19.032;2022-11-15T01:11:34;9.10;99.90
44731;DHT22;30458;47.448;19.032;2022-11-15T01:21:54;9.10;99.90
44731;DHT22;30458;47.448;19.032;2022-11-15T01:32:13;9.20;99.90
44731;DHT22;30458;47.448;19.032;2022-11-15T01:42:32;9.10;99.90
44731;DHT22;30458;47.448;19.032;2022-11-15T01:52:51;9.20;99.90
44731;DHT22;30458;47.448;19.032;2022-11-15T02:03:10;9.30;99.90
44731;DHT22;30458;47.448;19.032;2022-11-15T02:13:29;9.40;99.90
44731;DHT22;30458;47.448;19.032;2022-11-15T02:44:51;9.10;99.90
44731;DHT22;30458;47.448;19.032;2022-11-15T02:55:48;9.00;99.90
44731;DHT22;30458;47.448;19.032;2022-11-15T03:27:22;9.00;99.90
44731;DHT22;30458;47.448;19.032;2022-11-15T03:48:25;9.00;99.90
44731;DHT22;30458;47.448;19.032;2022-11-15T03:58:46;9.00;99.90
44731;DHT22;30458;47.448;19.032;2022-11-15T04:09:05;9.00;99.90
44731;DHT22;30458;47.448;19.032;2022-11-15T04:19:24;8.90;99.90
44731;DHT22;30458;47.448;19.032;2022-11-15T04:30:02;9.00;99.90
44731;DHT22;30458;47.448;19.032;2022-11-15T04:40:22;9.10;99.90
44731;DHT22;30458;47.448;19.032;2022-11-15T04:50:41;8.80;99.90
44731;DHT22;30458;47.448;19.032;2022-11-15T05:01:11;8.70;99.90
44731;DHT22;30458;47.448;19.032;2022-11-15T05:11:33;8.70;99.90
44731;DHT22;30458;47.448;19.032;2022-11-15T05:21:55;8.90;99.90
44731;DHT22;30458;47.448;19.032;2022-11-15T05:32:14;9.10;99.90
44731;DHT22;30458;47.448;19.032;2022-11-15T05:42:33;9.20;99.90
44731;DHT22;30458;47.448;19.032;2022-11-15T05:52:54;9.30;99.90
44731;DHT22;30458;47.448;19.032;2022-11-15T06:03:16;9.30;99.90
44731;DHT22;30458;47.448;19.032;2022-11-15T06:13:35;9.40;99.90
44731;DHT22;30458;47.448;19.032;2022-11-15T06:23:54;9.30;99.90
44731;DHT22;30458;47.448;19.032;2022-11-15T06:34:15;9.40;99.90
44731;DHT22;30458;47.448;19.032;2022-11-15T06:44:37;9.50;99.90
44731;DHT22;30458;47.448;19.032;2022-11-15T06:54:56;9.40;99.90
44731;DHT22;30458;47.448;19.032;2022-11-15T07:05:18;9.30;99.90
44731;DHT22;30458;47.448;19.032;2022-11-15T07:15:37;9.50;99.90
44731;DHT22;30458;47.448;19.032;2022-11-15T07:25:57;9.60;99.90
44731;DHT22;30458;47.448;19.032;2022-11-15T07:36:17;9.70;99.90
44731;DHT22;30458;47.448;19.032;2022-11-15T07:46:36;9.80;99.90
44731;DHT22;30458;47.448;19.032;2022-11-15T07:56:56;9.80;99.90
44731;DHT22;30458;47.448;19.032;2022-11-15T08:07:18;9.70;99.90
44731;DHT22;30458;47.448;19.032;2022-11-15T08:17:39;9.80;99.90
44731;DHT22;30458;47.448;19.032;2022-11-15T08:28:03;9.80;99.90
44731;DHT22;30458;47.448;19.032;2022-11-15T08:38:25;9.90;99.90
44731;DHT22;30458;47.448;19.032;2022-11-15T08:48:45;10.00;99.90
44731;DHT22;30458;47.448;19.032;2022-11-15T08:59:04;10.00;99.90
44731;DHT22;30458;47.448;19.032;2022-11-15T09:09:23;9.90;99.90
44731;DHT22;30458;47.448;19.032;2022-11-15T09:19:42;9.90;99.90
44731;DHT22;30458;47.448;19.032;2022-11-15T09:30:04;10.20;99.90
44731;DHT22;30458;47.448;19.032;2022-11-15T09:40:24;10.10;99.90
44731;DHT22;30458;47.448;19.032;2022-11-15T09:50:52;10.10;99.90
44731;DHT22;30458;47.448;19.032;2022-11-15T10:01:16;10.20;99.90
44731;DHT22;30458;47.448;19.032;2022-11-15T10:11:30;10.20;99.90
44731;DHT22;30458;47.448;19.032;2022-11-15T10:21:46;10.10;99.90
44731;DHT22;30458;47.448;19.032;2022-11-15T10:31:51;10.20;99.90
44731;DHT22;30458;47.448;19.032;2022-11-15T10:41:57;10.00;99.90
44731;DHT22;30458;47.448;19.032;2022-11-15T11:02:38;10.10;99.90
44731;DHT22;30458;47.448;19.032;2022-11-15T11:12:41;10.20;99.90
44731;DHT22;30458;47.448;19.032;2022-11-15T11:53:42;9.70;99.90
44731;DHT22;30458;47.448;19.032;2022-11-15T12:03:47;9.70;99.90
44731;DHT22;30458;47.448;19.032;2022-11-15T12:13:56;9.60;99.90
44731;DHT22;30458;47.448;19.032;2022-11-15T12:24:06;9.60;99.90
44731;DHT22;30458;47.448;19.032;2022-11-15T13:04:32;9.50;99.90
44731;DHT22;30458;47.448;19.032;2022-11-15T13:24:38;9.60;99.90
44731;DHT22;30458;47.448;19.032;2022-11-15T13:34:44;9.60;99.90
44731;DHT22;30458;47.448;19.032;2022-11-15T13:45:04;9.80;99.90
44731;DHT22;30458;47.448;19.032;2022-11-15T13:55:20;9.90;99.90
44731;DHT22;30458;47.448;19.032;2022-11-15T14:05:23;9.90;99.90
44731;DHT22;30458;47.448;19.032;2022-11-15T14:15:35;9.70;99.90
44731;DHT22;30458;47.448;19.032;2022-11-15T14:25:36;9.50;99.90
44731;DHT22;30458;47.448;19.032;2022-11-15T14:35:38;9.50;99.90
44731;DHT22;30458;47.448;19.032;2022-11-15T14:45:39;9.40;99.90
44731;DHT22;30458;47.448;19.032;2022-11-15T14:55:40;9.40;99.90
44731;DHT22;30458;47.448;19.032;2022-11-15T15:05:44;9.40;99.90
44731;DHT22;30458;47.448;19.032;2022-11-15T15:15:45;9.50;99.90
44731;DHT22;30458;47.448;19.032;2022-11-15T15:25:49;9.50;99.90
44731;DHT22;30458;47.448;19.032;2022-11-15T15:35:50;9.60;99.90
44731;DHT22;30458;47.448;19.032;2022-11-15T15:45:51;9.50;99.90
44731;DHT22;30458;47.448;19.032;2022-11-15T15:55:51;9.10;99.90
44731;DHT22;30458;47.448;19.032;2022-11-15T16:05:52;9.10;99.90
44731;DHT22;30458;47.448;19.032;2022-11-15T16:15:54;9.30;99.90
44731;DHT22;30458;47.448;19.032;2022-11-15T16:25:55;9.30;99.90
44731;DHT22;30458;47.448;19.032;2022-11-15T16:35:59;9.30;99.90
44731;DHT22;30458;47.448;19.032;2022-11-15T16:46:08;9.20;99.90
44731;DHT22;30458;47.448;19.032;2022-11-15T17:06:25;9.00;99.90
44731;DHT22;30458;47.448;19.032;2022-11-15T17:16:26;8.80;99.90
44731;DHT22;30458;47.448;19.032;2022-11-15T17:26:26;9.00;99.90
44731;DHT22;30458;47.448;19.032;2022-11-15T17:36:27;8.70;99.90
44731;DHT22;30458;47.448;19.032;2022-11-15T17:46:28;8.90;99.90
44731;DHT22;30458;47.448;19.032;2022-11-15T17:56:29;9.30;99.90
44731;DHT22;30458;47.448;19.032;2022-11-15T18:06:33;9.50;99.90
44731;DHT22;30458;47.448;19.032;2022-11-15T18:16:38;9.60;99.90
44731;DHT22;30458;47.448;19.032;2022-11-15T18:26:39;9.60;99.90
44731;DHT22;30458;47.448;19.032;2022-11-15T18:36:40;9.70;99.90
44731;DHT22;30458;47.448;19.032;2022-11-15T18:46:44;9.80;99.90
44731;DHT22;30458;47.448;19.032;2022-11-15T18:56:47;9.80;99.90
44731;DHT22;30458;47.448;19.032;2022-11-15T19:06:50;9.80;99.90
44731;DHT22;30458;47.448;19.032;2022-11-15T19:16:52;9.80;99.90
44731;DHT22;30458;47.448;19.032;2022-11-15T19:26:54;9.80;99.90
44731;DHT22;30458;47.448;19.032;2022-11-15T19:36:57;9.90;99.90
44731;DHT22;30458;47.448;19.032;2022-11-15T19:46:58;9.90;99.90
44731;DHT22;30458;47.448;19.032;2022-11-15T19:56:59;9.90;99.90
44731;DHT22;30458;47.448;19.032;2022-11-15T20:07:02;9.90;99.90
44731;DHT22;30458;47.448;19.032;2022-11-15T20:17:05;9.80;99.90
44731;DHT22;30458;47.448;19.032;2022-11-15T20:27:06;9.90;99.90
44731;DHT22;30458;47.448;19.032;2022-11-15T20:37:07;10.00;99.90
44731;DHT22;30458;47.448;19.032;2022-11-15T20:47:11;10.00;99.90
44731;DHT22;30458;47.448;19.032;2022-11-15T20:57:12;10.00;99.90
44731;DHT22;30458;47.448;19.032;2022-11-15T21:07:12;9.90;99.90
44731;DHT22;30458;47.448;19.032;2022-11-15T21:17:15;10.00;99.90
44731;DHT22;30458;47.448;19.032;2022-11-15T21:27:21;9.80;99.90
44731;DHT22;30458;47.448;19.032;2022-11-15T21:37:21;9.80;99.90
44731;DHT22;30458;47.448;19.032;2022-11-15T21:47:22;9.90;99.90
44731;DHT22;30458;47.448;19.032;2022-11-15T21:57:25;9.90;99.90
44731;DHT22;30458;47.448;19.032;2022-11-15T22:07:30;10.00;99.90
44731;DHT22;30458;47.448;19.032;2022-11-15T22:17:30;9.80;99.90
44731;DHT22;30458;47.448;19.032;2022-11-15T22:27:50;9.90;99.90
44731;DHT22;30458;47.448;19.032;2022-11-15T22:37:51;9.90;99.90
44731;DHT22;30458;47.448;19.032;2022-11-15T22:47:52;10.00;99.90
44731;DHT22;30458;47.448;19.032;2022-11-15T22:57:55;10.00;99.90
44731;DHT22;30458;47.448;19.032;2022-11-15T23:07:58;10.00;99.90
44731;DHT22;30458;47.448;19.032;2022-11-15T23:18:04;9.90;99.90
44731;DHT22;30458;47.448;19.032;2022-11-15T23:28:05;9.90;99.90
44731;DHT22;30458;47.448;19.032;2022-11-15T23:38:06;9.90;99.90
44731;DHT22;30458;47.448;19.032;2022-11-15T23:48:09;9.90;99.90
44731;DHT22;30458;47.448;19.032;2022-11-15T23:58:10;9.90;99.90
